sensor_id;sensor_type;location;lat;lon;timestamp;pressure;altitude;pressure_sealevel;temperature;humidity
23635;BME280;11994;51.038;16.974;2023-03-03T00:00:16;100646.52;;;1.88;83.60
23635;BME280;11994;51.038;16.974;2023-03-03T00:02:42;100639.86;;;1.81;83.80
23635;BME280;11994;51.038;16.974;2023-03-03T00:05:08;100636.45;;;1.75;83.65
23635;BME280;11994;51.038;16.974;2023-03-03T00:07:33;100634.73;;;1.75;84.02
23635;BME280;11994;51.038;16.974;2023-03-03T00:09:58;100637.36;;;1.77;83.75
23635;BME280;11994;51.038;16.974;2023-03-03T00:12:28;100635.14;;;1.78;83.98
23635;BME280;11994;51.038;16.974;2023-03-03T00:14:55;100634.27;;;1.78;84.04
23635;BME280;11994;51.038;16.974;2023-03-03T00:17:24;100638.32;;;1.73;83.85
23635;BME280;11994;51.038;16.974;2023-03-03T00:19:50;100645.95;;;1.67;84.20
23635;BME280;11994;51.038;16.974;2023-03-03T00:22:28;100652.39;;;1.61;84.25
23635;BME280;11994;51.038;16.974;2023-03-03T00:24:54;100649.24;;;1.59;84.49
23635;BME280;11994;51.038;16.974;2023-03-03T00:27:33;100644.27;;;1.61;84.49
23635;BME280;11994;51.038;16.974;2023-03-03T00:29:59;100646.58;;;1.64;84.67
23635;BME280;11994;51.038;16.974;2023-03-03T00:32:44;100651.17;;;1.61;84.92
23635;BME280;11994;51.038;16.974;2023-03-03T00:35:35;100658.05;;;1.51;85.17
23635;BME280;11994;51.038;16.974;2023-03-03T00:38:21;100659.66;;;1.46;85.19
23635;BME280;11994;51.038;16.974;2023-03-03T00:40:47;100648.77;;;1.44;85.01
23635;BME280;11994;51.038;16.974;2023-03-03T00:43:22;100643.60;;;1.44;85.33
23635;BME280;11994;51.038;16.974;2023-03-03T00:45:51;100637.39;;;1.43;85.50
23635;BME280;11994;51.038;16.974;2023-03-03T00:48:20;100634.27;;;1.43;85.62
23635;BME280;11994;51.038;16.974;2023-03-03T00:50:47;100623.95;;;1.43;85.63
23635;BME280;11994;51.038;16.974;2023-03-03T00:53:14;100620.59;;;1.39;85.91
23635;BME280;11994;51.038;16.974;2023-03-03T00:55:44;100623.33;;;1.38;85.89
23635;BME280;11994;51.038;16.974;2023-03-03T00:58:10;100621.98;;;1.39;85.69
23635;BME280;11994;51.038;16.974;2023-03-03T01:00:36;100619.23;;;1.40;85.81
23635;BME280;11994;51.038;16.974;2023-03-03T01:03:04;100621.30;;;1.40;85.91
23635;BME280;11994;51.038;16.974;2023-03-03T01:05:30;100621.56;;;1.36;85.99
23635;BME280;11994;51.038;16.974;2023-03-03T01:07:55;100621.69;;;1.33;86.08
23635;BME280;11994;51.038;16.974;2023-03-03T01:10:21;100626.19;;;1.34;86.05
23635;BME280;11994;51.038;16.974;2023-03-03T01:12:46;100624.09;;;1.33;86.17
23635;BME280;11994;51.038;16.974;2023-03-03T01:15:13;100619.95;;;1.33;86.18
23635;BME280;11994;51.038;16.974;2023-03-03T01:17:40;100625.27;;;1.32;86.46
23635;BME280;11994;51.038;16.974;2023-03-03T01:20:08;100625.16;;;1.27;86.14
23635;BME280;11994;51.038;16.974;2023-03-03T01:22:33;100630.58;;;1.22;86.51
23635;BME280;11994;51.038;16.974;2023-03-03T01:24:59;100619.86;;;1.19;86.37
23635;BME280;11994;51.038;16.974;2023-03-03T01:27:24;100623.46;;;1.19;86.25
23635;BME280;11994;51.038;16.974;2023-03-03T01:29:49;100623.57;;;1.16;86.39
23635;BME280;11994;51.038;16.974;2023-03-03T01:32:15;100612.00;;;1.14;86.39
23635;BME280;11994;51.038;16.974;2023-03-03T01:34:40;100610.22;;;1.12;86.54
23635;BME280;11994;51.038;16.974;2023-03-03T01:37:06;100604.91;;;1.05;86.70
23635;BME280;11994;51.038;16.974;2023-03-03T01:39:31;100601.91;;;1.02;86.56
23635;BME280;11994;51.038;16.974;2023-03-03T01:41:56;100601.70;;;1.08;86.64
23635;BME280;11994;51.038;16.974;2023-03-03T01:44:22;100593.39;;;1.15;86.63
23635;BME280;11994;51.038;16.974;2023-03-03T01:49:33;100593.95;;;1.16;86.75
23635;BME280;11994;51.038;16.974;2023-03-03T01:52:03;100594.60;;;1.14;86.60
23635;BME280;11994;51.038;16.974;2023-03-03T01:54:33;100593.70;;;1.13;86.64
23635;BME280;11994;51.038;16.974;2023-03-03T01:57:02;100589.24;;;1.13;86.59
23635;BME280;11994;51.038;16.974;2023-03-03T01:59:37;100582.13;;;1.20;86.74
23635;BME280;11994;51.038;16.974;2023-03-03T02:02:06;100587.38;;;1.24;86.52
23635;BME280;11994;51.038;16.974;2023-03-03T02:04:33;100577.06;;;1.25;86.78
23635;BME280;11994;51.038;16.974;2023-03-03T02:07:02;100572.71;;;1.31;86.85
23635;BME280;11994;51.038;16.974;2023-03-03T02:09:33;100575.02;;;1.35;86.85
23635;BME280;11994;51.038;16.974;2023-03-03T02:12:04;100574.80;;;1.32;86.69
23635;BME280;11994;51.038;16.974;2023-03-03T02:14:30;100575.75;;;1.28;86.72
23635;BME280;11994;51.038;16.974;2023-03-03T02:16:56;100579.64;;;1.24;86.34
23635;BME280;11994;51.038;16.974;2023-03-03T02:19:29;100574.73;;;1.20;86.66
23635;BME280;11994;51.038;16.974;2023-03-03T02:21:58;100571.80;;;1.20;86.71
23635;BME280;11994;51.038;16.974;2023-03-03T02:24:24;100567.35;;;1.21;86.79
23635;BME280;11994;51.038;16.974;2023-03-03T02:26:52;100565.23;;;1.19;86.70
23635;BME280;11994;51.038;16.974;2023-03-03T02:29:17;100560.20;;;1.17;86.67
23635;BME280;11994;51.038;16.974;2023-03-03T02:31:42;100556.89;;;1.23;87.02
23635;BME280;11994;51.038;16.974;2023-03-03T02:34:08;100557.40;;;1.23;86.84
23635;BME280;11994;51.038;16.974;2023-03-03T02:36:36;100554.46;;;1.22;86.84
23635;BME280;11994;51.038;16.974;2023-03-03T02:39:22;100557.80;;;1.25;86.84
23635;BME280;11994;51.038;16.974;2023-03-03T02:42:21;100561.33;;;1.21;86.79
23635;BME280;11994;51.038;16.974;2023-03-03T02:44:45;100561.90;;;1.15;87.04
23635;BME280;11994;51.038;16.974;2023-03-03T02:47:10;100566.77;;;1.18;87.04
23635;BME280;11994;51.038;16.974;2023-03-03T02:49:36;100566.84;;;1.22;87.07
23635;BME280;11994;51.038;16.974;2023-03-03T02:52:04;100567.40;;;1.24;87.10
23635;BME280;11994;51.038;16.974;2023-03-03T02:54:30;100566.71;;;1.24;87.03
23635;BME280;11994;51.038;16.974;2023-03-03T02:56:56;100566.20;;;1.15;86.87
23635;BME280;11994;51.038;16.974;2023-03-03T02:59:22;100568.11;;;1.08;86.94
23635;BME280;11994;51.038;16.974;2023-03-03T03:01:48;100580.58;;;1.02;87.19
23635;BME280;11994;51.038;16.974;2023-03-03T03:04:20;100585.86;;;1.00;87.14
23635;BME280;11994;51.038;16.974;2023-03-03T03:06:46;100590.52;;;1.01;87.44
23635;BME280;11994;51.038;16.974;2023-03-03T03:09:13;100599.00;;;1.03;87.33
23635;BME280;11994;51.038;16.974;2023-03-03T03:11:39;100602.57;;;1.00;87.50
23635;BME280;11994;51.038;16.974;2023-03-03T03:14:06;100597.98;;;0.95;87.54
23635;BME280;11994;51.038;16.974;2023-03-03T03:16:32;100604.45;;;0.92;87.58
23635;BME280;11994;51.038;16.974;2023-03-03T03:18:59;100600.89;;;0.87;87.59
23635;BME280;11994;51.038;16.974;2023-03-03T03:21:25;100604.02;;;0.87;87.69
23635;BME280;11994;51.038;16.974;2023-03-03T03:23:50;100597.30;;;0.87;87.93
23635;BME280;11994;51.038;16.974;2023-03-03T03:26:16;100604.52;;;0.87;88.37
23635;BME280;11994;51.038;16.974;2023-03-03T03:28:41;100598.98;;;0.86;88.60
23635;BME280;11994;51.038;16.974;2023-03-03T03:31:08;100595.08;;;0.88;88.62
23635;BME280;11994;51.038;16.974;2023-03-03T03:33:34;100587.17;;;0.89;88.74
23635;BME280;11994;51.038;16.974;2023-03-03T03:36:00;100578.30;;;0.84;88.70
23635;BME280;11994;51.038;16.974;2023-03-03T03:38:26;100574.80;;;0.81;88.83
23635;BME280;11994;51.038;16.974;2023-03-03T03:40:52;100573.45;;;0.83;88.69
23635;BME280;11994;51.038;16.974;2023-03-03T03:43:17;100567.36;;;0.80;88.50
23635;BME280;11994;51.038;16.974;2023-03-03T03:45:44;100571.62;;;0.78;88.51
23635;BME280;11994;51.038;16.974;2023-03-03T03:48:09;100576.91;;;0.76;88.57
23635;BME280;11994;51.038;16.974;2023-03-03T03:50:35;100578.73;;;0.73;88.67
23635;BME280;11994;51.038;16.974;2023-03-03T03:53:01;100580.54;;;0.77;88.70
23635;BME280;11994;51.038;16.974;2023-03-03T03:55:26;100577.02;;;0.81;88.55
23635;BME280;11994;51.038;16.974;2023-03-03T03:57:52;100572.20;;;0.81;88.47
23635;BME280;11994;51.038;16.974;2023-03-03T04:00:18;100580.88;;;0.76;88.43
23635;BME280;11994;51.038;16.974;2023-03-03T04:02:44;100588.84;;;0.70;88.61
23635;BME280;11994;51.038;16.974;2023-03-03T04:05:09;100596.67;;;0.67;88.81
23635;BME280;11994;51.038;16.974;2023-03-03T04:07:34;100603.22;;;0.68;89.01
23635;BME280;11994;51.038;16.974;2023-03-03T04:10:00;100595.88;;;0.70;88.90
23635;BME280;11994;51.038;16.974;2023-03-03T04:12:25;100594.09;;;0.74;88.90
23635;BME280;11994;51.038;16.974;2023-03-03T04:14:50;100597.65;;;0.73;88.91
23635;BME280;11994;51.038;16.974;2023-03-03T04:17:20;100602.64;;;0.72;89.16
23635;BME280;11994;51.038;16.974;2023-03-03T04:19:46;100604.14;;;0.70;89.16
23635;BME280;11994;51.038;16.974;2023-03-03T04:22:12;100607.10;;;0.71;88.97
23635;BME280;11994;51.038;16.974;2023-03-03T04:24:39;100610.06;;;0.73;89.10
23635;BME280;11994;51.038;16.974;2023-03-03T04:27:05;100615.05;;;0.73;89.23
23635;BME280;11994;51.038;16.974;2023-03-03T04:29:31;100614.97;;;0.70;89.07
23635;BME280;11994;51.038;16.974;2023-03-03T04:31:56;100617.19;;;0.68;89.01
23635;BME280;11994;51.038;16.974;2023-03-03T04:34:22;100622.28;;;0.66;89.18
23635;BME280;11994;51.038;16.974;2023-03-03T04:36:47;100624.34;;;0.65;89.26
23635;BME280;11994;51.038;16.974;2023-03-03T04:39:12;100622.83;;;0.67;89.29
23635;BME280;11994;51.038;16.974;2023-03-03T04:41:38;100621.73;;;0.65;89.52
23635;BME280;11994;51.038;16.974;2023-03-03T04:44:03;100616.57;;;0.64;89.44
23635;BME280;11994;51.038;16.974;2023-03-03T04:46:28;100615.51;;;0.63;89.62
23635;BME280;11994;51.038;16.974;2023-03-03T04:48:54;100615.48;;;0.61;89.61
23635;BME280;11994;51.038;16.974;2023-03-03T04:51:19;100622.17;;;0.61;89.70
23635;BME280;11994;51.038;16.974;2023-03-03T04:53:45;100624.41;;;0.61;89.79
23635;BME280;11994;51.038;16.974;2023-03-03T04:56:10;100633.86;;;0.61;89.93
23635;BME280;11994;51.038;16.974;2023-03-03T04:58:35;100628.17;;;0.60;90.01
23635;BME280;11994;51.038;16.974;2023-03-03T05:01:01;100627.84;;;0.60;89.87
23635;BME280;11994;51.038;16.974;2023-03-03T05:03:26;100631.44;;;0.59;89.82
23635;BME280;11994;51.038;16.974;2023-03-03T05:05:52;100628.80;;;0.57;89.82
23635;BME280;11994;51.038;16.974;2023-03-03T05:08:18;100620.64;;;0.54;89.94
23635;BME280;11994;51.038;16.974;2023-03-03T05:10:43;100620.27;;;0.53;90.06
23635;BME280;11994;51.038;16.974;2023-03-03T05:13:09;100623.52;;;0.53;90.06
23635;BME280;11994;51.038;16.974;2023-03-03T05:15:35;100625.06;;;0.52;89.93
23635;BME280;11994;51.038;16.974;2023-03-03T05:18:00;100626.69;;;0.48;89.77
23635;BME280;11994;51.038;16.974;2023-03-03T05:20:26;100621.80;;;0.45;90.03
23635;BME280;11994;51.038;16.974;2023-03-03T05:22:51;100619.73;;;0.44;90.00
23635;BME280;11994;51.038;16.974;2023-03-03T05:25:17;100615.72;;;0.43;89.85
23635;BME280;11994;51.038;16.974;2023-03-03T05:27:43;100614.09;;;0.46;89.99
23635;BME280;11994;51.038;16.974;2023-03-03T05:30:10;100612.92;;;0.48;89.80
23635;BME280;11994;51.038;16.974;2023-03-03T05:32:35;100614.33;;;0.50;89.91
23635;BME280;11994;51.038;16.974;2023-03-03T05:35:01;100616.84;;;0.54;90.10
23635;BME280;11994;51.038;16.974;2023-03-03T05:37:27;100621.65;;;0.53;90.00
23635;BME280;11994;51.038;16.974;2023-03-03T05:39:52;100625.05;;;0.51;90.23
23635;BME280;11994;51.038;16.974;2023-03-03T05:42:18;100616.63;;;0.52;90.24
23635;BME280;11994;51.038;16.974;2023-03-03T05:44:43;100618.74;;;0.54;90.33
23635;BME280;11994;51.038;16.974;2023-03-03T05:47:08;100618.75;;;0.55;90.27
23635;BME280;11994;51.038;16.974;2023-03-03T05:49:34;100611.77;;;0.57;90.20
23635;BME280;11994;51.038;16.974;2023-03-03T05:51:59;100613.71;;;0.60;90.15
23635;BME280;11994;51.038;16.974;2023-03-03T05:54:25;100616.83;;;0.61;90.02
23635;BME280;11994;51.038;16.974;2023-03-03T05:56:50;100618.53;;;0.60;90.17
23635;BME280;11994;51.038;16.974;2023-03-03T05:59:16;100618.14;;;0.57;90.10
23635;BME280;11994;51.038;16.974;2023-03-03T06:01:41;100622.26;;;0.57;90.30
23635;BME280;11994;51.038;16.974;2023-03-03T06:04:06;100617.33;;;0.60;90.33
23635;BME280;11994;51.038;16.974;2023-03-03T06:06:32;100626.43;;;0.59;90.34
23635;BME280;11994;51.038;16.974;2023-03-03T06:08:58;100627.30;;;0.60;90.21
23635;BME280;11994;51.038;16.974;2023-03-03T06:11:23;100625.79;;;0.61;90.22
23635;BME280;11994;51.038;16.974;2023-03-03T06:13:49;100630.79;;;0.62;90.37
23635;BME280;11994;51.038;16.974;2023-03-03T06:16:14;100630.96;;;0.62;90.54
23635;BME280;11994;51.038;16.974;2023-03-03T06:18:39;100635.17;;;0.57;90.44
23635;BME280;11994;51.038;16.974;2023-03-03T06:21:05;100635.67;;;0.57;90.31
23635;BME280;11994;51.038;16.974;2023-03-03T06:23:30;100637.08;;;0.58;90.35
23635;BME280;11994;51.038;16.974;2023-03-03T06:25:56;100635.53;;;0.59;90.52
23635;BME280;11994;51.038;16.974;2023-03-03T06:28:22;100625.23;;;0.60;90.30
23635;BME280;11994;51.038;16.974;2023-03-03T06:30:52;100636.45;;;0.61;90.38
23635;BME280;11994;51.038;16.974;2023-03-03T06:33:18;100642.10;;;0.60;90.42
23635;BME280;11994;51.038;16.974;2023-03-03T06:35:43;100645.02;;;0.60;90.43
23635;BME280;11994;51.038;16.974;2023-03-03T06:38:09;100659.88;;;0.62;90.48
23635;BME280;11994;51.038;16.974;2023-03-03T06:40:34;100661.50;;;0.65;90.50
23635;BME280;11994;51.038;16.974;2023-03-03T06:42:59;100661.00;;;0.66;90.63
23635;BME280;11994;51.038;16.974;2023-03-03T06:45:27;100660.80;;;0.65;90.46
23635;BME280;11994;51.038;16.974;2023-03-03T06:47:52;100653.52;;;0.62;90.50
23635;BME280;11994;51.038;16.974;2023-03-03T06:50:19;100648.83;;;0.61;90.59
23635;BME280;11994;51.038;16.974;2023-03-03T06:52:45;100643.72;;;0.63;90.60
23635;BME280;11994;51.038;16.974;2023-03-03T06:55:19;100639.71;;;0.61;90.50
23635;BME280;11994;51.038;16.974;2023-03-03T06:57:46;100640.89;;;0.59;90.50
23635;BME280;11994;51.038;16.974;2023-03-03T07:02:40;100654.17;;;0.61;90.91
23635;BME280;11994;51.038;16.974;2023-03-03T07:05:10;100648.02;;;0.62;90.89
23635;BME280;11994;51.038;16.974;2023-03-03T07:07:37;100651.15;;;0.64;91.00
23635;BME280;11994;51.038;16.974;2023-03-03T07:10:09;100662.33;;;0.64;90.96
23635;BME280;11994;51.038;16.974;2023-03-03T07:12:37;100664.20;;;0.63;90.99
23635;BME280;11994;51.038;16.974;2023-03-03T07:17:47;100675.02;;;0.54;90.67
23635;BME280;11994;51.038;16.974;2023-03-03T07:20:35;100680.87;;;0.48;90.85
23635;BME280;11994;51.038;16.974;2023-03-03T07:23:20;100694.26;;;0.47;91.00
23635;BME280;11994;51.038;16.974;2023-03-03T07:25:47;100690.88;;;0.49;91.00
23635;BME280;11994;51.038;16.974;2023-03-03T07:28:23;100698.64;;;0.50;91.13
23635;BME280;11994;51.038;16.974;2023-03-03T07:30:49;100701.67;;;0.47;91.21
23635;BME280;11994;51.038;16.974;2023-03-03T07:33:34;100708.96;;;0.44;90.99
23635;BME280;11994;51.038;16.974;2023-03-03T07:36:02;100702.88;;;0.47;91.25
23635;BME280;11994;51.038;16.974;2023-03-03T07:40:58;100703.36;;;0.53;91.13
23635;BME280;11994;51.038;16.974;2023-03-03T07:43:30;100695.36;;;0.50;90.95
23635;BME280;11994;51.038;16.974;2023-03-03T07:46:16;100693.87;;;0.52;91.01
23635;BME280;11994;51.038;16.974;2023-03-03T07:48:45;100682.11;;;0.56;91.12
23635;BME280;11994;51.038;16.974;2023-03-03T07:51:18;100678.30;;;0.56;91.02
23635;BME280;11994;51.038;16.974;2023-03-03T07:53:47;100679.29;;;0.53;91.08
23635;BME280;11994;51.038;16.974;2023-03-03T07:56:27;100678.19;;;0.51;91.11
23635;BME280;11994;51.038;16.974;2023-03-03T07:58:54;100680.16;;;0.54;90.99
23635;BME280;11994;51.038;16.974;2023-03-03T08:01:38;100681.27;;;0.57;90.83
23635;BME280;11994;51.038;16.974;2023-03-03T08:04:28;100684.08;;;0.52;90.69
23635;BME280;11994;51.038;16.974;2023-03-03T08:06:59;100685.75;;;0.50;90.81
23635;BME280;11994;51.038;16.974;2023-03-03T08:09:50;100690.73;;;0.50;90.87
23635;BME280;11994;51.038;16.974;2023-03-03T08:12:22;100694.52;;;0.50;91.19
23635;BME280;11994;51.038;16.974;2023-03-03T08:14:51;100689.16;;;0.50;90.72
23635;BME280;11994;51.038;16.974;2023-03-03T08:17:27;100677.41;;;0.47;90.57
23635;BME280;11994;51.038;16.974;2023-03-03T08:19:56;100683.84;;;0.50;90.48
23635;BME280;11994;51.038;16.974;2023-03-03T08:22:30;100682.27;;;0.48;90.56
23635;BME280;11994;51.038;16.974;2023-03-03T08:24:57;100679.98;;;0.47;90.54
23635;BME280;11994;51.038;16.974;2023-03-03T08:27:22;100683.92;;;0.46;90.62
23635;BME280;11994;51.038;16.974;2023-03-03T08:29:48;100687.98;;;0.43;90.58
23635;BME280;11994;51.038;16.974;2023-03-03T08:32:14;100686.20;;;0.41;90.49
23635;BME280;11994;51.038;16.974;2023-03-03T08:34:39;100687.20;;;0.39;90.40
23635;BME280;11994;51.038;16.974;2023-03-03T08:37:05;100687.44;;;0.42;90.53
23635;BME280;11994;51.038;16.974;2023-03-03T08:39:30;100687.73;;;0.47;90.75
23635;BME280;11994;51.038;16.974;2023-03-03T08:41:56;100690.91;;;0.51;90.89
23635;BME280;11994;51.038;16.974;2023-03-03T08:44:21;100686.96;;;0.51;90.87
23635;BME280;11994;51.038;16.974;2023-03-03T08:46:47;100687.29;;;0.50;90.79
23635;BME280;11994;51.038;16.974;2023-03-03T08:49:12;100687.15;;;0.51;90.74
23635;BME280;11994;51.038;16.974;2023-03-03T08:51:38;100690.80;;;0.53;90.50
23635;BME280;11994;51.038;16.974;2023-03-03T08:54:03;100693.98;;;0.56;90.45
23635;BME280;11994;51.038;16.974;2023-03-03T08:56:29;100694.47;;;0.55;90.46
23635;BME280;11994;51.038;16.974;2023-03-03T08:58:54;100703.83;;;0.51;90.52
23635;BME280;11994;51.038;16.974;2023-03-03T09:01:19;100706.88;;;0.49;90.45
23635;BME280;11994;51.038;16.974;2023-03-03T09:03:45;100709.77;;;0.47;90.26
23635;BME280;11994;51.038;16.974;2023-03-03T09:06:10;100708.89;;;0.47;90.43
23635;BME280;11994;51.038;16.974;2023-03-03T09:08:36;100708.26;;;0.50;90.40
23635;BME280;11994;51.038;16.974;2023-03-03T09:11:02;100711.03;;;0.57;90.38
23635;BME280;11994;51.038;16.974;2023-03-03T09:13:29;100714.41;;;0.61;90.11
23635;BME280;11994;51.038;16.974;2023-03-03T09:15:57;100711.63;;;0.61;90.03
23635;BME280;11994;51.038;16.974;2023-03-03T09:18:37;100713.24;;;0.63;90.35
23635;BME280;11994;51.038;16.974;2023-03-03T09:21:17;100723.41;;;0.63;90.40
23635;BME280;11994;51.038;16.974;2023-03-03T09:23:58;100720.20;;;0.66;90.43
23635;BME280;11994;51.038;16.974;2023-03-03T09:26:30;100719.09;;;0.63;90.46
23635;BME280;11994;51.038;16.974;2023-03-03T09:31:52;100722.81;;;0.68;90.21
23635;BME280;11994;51.038;16.974;2023-03-03T09:34:38;100724.98;;;0.65;90.12
23635;BME280;11994;51.038;16.974;2023-03-03T09:37:35;100730.23;;;0.68;90.22
23635;BME280;11994;51.038;16.974;2023-03-03T09:40:28;100734.57;;;0.69;90.15
23635;BME280;11994;51.038;16.974;2023-03-03T09:43:03;100739.78;;;0.65;90.24
23635;BME280;11994;51.038;16.974;2023-03-03T09:46:33;100741.52;;;0.65;90.19
23635;BME280;11994;51.038;16.974;2023-03-03T09:53:53;100735.00;;;0.66;89.79
23635;BME280;11994;51.038;16.974;2023-03-03T10:01:42;100733.92;;;0.71;89.63
23635;BME280;11994;51.038;16.974;2023-03-03T10:07:38;100739.47;;;0.73;89.70
23635;BME280;11994;51.038;16.974;2023-03-03T10:21:50;100738.66;;;0.82;89.60
23635;BME280;11994;51.038;16.974;2023-03-03T10:24:27;100736.75;;;0.82;89.40
23635;BME280;11994;51.038;16.974;2023-03-03T10:27:11;100738.39;;;0.85;89.84
23635;BME280;11994;51.038;16.974;2023-03-03T10:32:44;100740.91;;;0.82;89.43
23635;BME280;11994;51.038;16.974;2023-03-03T10:38:11;100738.84;;;0.89;89.64
23635;BME280;11994;51.038;16.974;2023-03-03T10:49:00;100735.74;;;0.97;89.44
23635;BME280;11994;51.038;16.974;2023-03-03T10:57:23;100726.06;;;1.02;89.57
23635;BME280;11994;51.038;16.974;2023-03-03T11:00:18;100724.09;;;1.07;89.56
23635;BME280;11994;51.038;16.974;2023-03-03T11:08:26;100720.52;;;1.16;89.42
23635;BME280;11994;51.038;16.974;2023-03-03T11:16:14;100710.29;;;1.21;89.16
23635;BME280;11994;51.038;16.974;2023-03-03T11:21:28;100707.30;;;1.17;89.03
23635;BME280;11994;51.038;16.974;2023-03-03T11:24:13;100704.38;;;1.18;89.25
23635;BME280;11994;51.038;16.974;2023-03-03T11:26:58;100702.52;;;1.20;89.06
23635;BME280;11994;51.038;16.974;2023-03-03T11:37:59;100709.47;;;1.30;89.07
23635;BME280;11994;51.038;16.974;2023-03-03T11:40:44;100692.47;;;1.33;89.03
23635;BME280;11994;51.038;16.974;2023-03-03T11:45:55;100689.29;;;1.37;89.08
23635;BME280;11994;51.038;16.974;2023-03-03T11:48:39;100686.79;;;1.42;89.14
23635;BME280;11994;51.038;16.974;2023-03-03T11:51:14;100684.70;;;1.48;89.00
23635;BME280;11994;51.038;16.974;2023-03-03T11:53:56;100684.59;;;1.51;88.67
23635;BME280;11994;51.038;16.974;2023-03-03T11:56:38;100681.36;;;1.53;88.62
23635;BME280;11994;51.038;16.974;2023-03-03T11:59:28;100676.98;;;1.51;88.63
23635;BME280;11994;51.038;16.974;2023-03-03T12:02:03;100671.88;;;1.53;88.89
23635;BME280;11994;51.038;16.974;2023-03-03T12:12:35;100667.21;;;1.52;88.15
23635;BME280;11994;51.038;16.974;2023-03-03T12:20:48;100671.95;;;1.65;88.48
23635;BME280;11994;51.038;16.974;2023-03-03T12:25:43;100668.34;;;1.74;88.15
23635;BME280;11994;51.038;16.974;2023-03-03T12:28:21;100673.16;;;1.75;87.82
23635;BME280;11994;51.038;16.974;2023-03-03T12:31:29;100667.58;;;1.71;87.74
23635;BME280;11994;51.038;16.974;2023-03-03T12:39:46;100666.54;;;1.71;87.89
23635;BME280;11994;51.038;16.974;2023-03-03T12:52:48;100664.20;;;1.84;87.45
23635;BME280;11994;51.038;16.974;2023-03-03T12:55:50;100664.05;;;1.84;87.44
23635;BME280;11994;51.038;16.974;2023-03-03T12:58:33;100668.25;;;1.88;87.59
23635;BME280;11994;51.038;16.974;2023-03-03T13:03:41;100667.95;;;1.91;87.31
23635;BME280;11994;51.038;16.974;2023-03-03T13:09:01;100661.70;;;1.88;87.66
23635;BME280;11994;51.038;16.974;2023-03-03T13:14:13;100657.63;;;1.92;87.63
23635;BME280;11994;51.038;16.974;2023-03-03T13:19:25;100662.34;;;1.95;87.69
23635;BME280;11994;51.038;16.974;2023-03-03T13:22:00;100659.02;;;2.01;87.52
23635;BME280;11994;51.038;16.974;2023-03-03T13:24:44;100656.98;;;2.03;87.30
23635;BME280;11994;51.038;16.974;2023-03-03T13:27:18;100653.55;;;2.04;87.50
23635;BME280;11994;51.038;16.974;2023-03-03T13:32:29;100651.30;;;2.13;87.47
23635;BME280;11994;51.038;16.974;2023-03-03T13:37:48;100649.36;;;2.11;86.65
23635;BME280;11994;51.038;16.974;2023-03-03T13:40:49;100650.23;;;2.12;86.67
23635;BME280;11994;51.038;16.974;2023-03-03T13:43:18;100647.25;;;2.19;86.85
23635;BME280;11994;51.038;16.974;2023-03-03T13:52:19;100647.98;;;2.21;87.01
23635;BME280;11994;51.038;16.974;2023-03-03T14:05:50;100636.73;;;2.28;86.39
23635;BME280;11994;51.038;16.974;2023-03-03T14:14:00;100631.90;;;2.28;86.25
23635;BME280;11994;51.038;16.974;2023-03-03T14:19:13;100625.54;;;2.30;86.33
23635;BME280;11994;51.038;16.974;2023-03-03T14:24:28;100615.34;;;2.29;86.11
23635;BME280;11994;51.038;16.974;2023-03-03T14:26:55;100620.63;;;2.25;86.02
23635;BME280;11994;51.038;16.974;2023-03-03T14:32:01;100621.29;;;2.23;85.99
23635;BME280;11994;51.038;16.974;2023-03-03T14:37:18;100618.54;;;2.24;86.11
23635;BME280;11994;51.038;16.974;2023-03-03T14:40:34;100618.16;;;2.22;86.03
23635;BME280;11994;51.038;16.974;2023-03-03T14:42:47;100616.44;;;2.23;86.17
23635;BME280;11994;51.038;16.974;2023-03-03T14:45:35;100618.54;;;2.25;86.14
23635;BME280;11994;51.038;16.974;2023-03-03T14:53:35;100609.27;;;2.27;86.03
23635;BME280;11994;51.038;16.974;2023-03-03T14:56:16;100601.55;;;2.29;86.05
23635;BME280;11994;51.038;16.974;2023-03-03T14:58:46;100602.90;;;2.28;85.81
23635;BME280;11994;51.038;16.974;2023-03-03T15:01:22;100610.92;;;2.23;85.71
23635;BME280;11994;51.038;16.974;2023-03-03T15:09:20;100614.90;;;2.03;85.50
23635;BME280;11994;51.038;16.974;2023-03-03T15:11:49;100606.45;;;2.04;85.93
23635;BME280;11994;51.038;16.974;2023-03-03T15:14:18;100604.02;;;2.02;85.88
23635;BME280;11994;51.038;16.974;2023-03-03T15:16:44;100600.67;;;1.98;85.80
23635;BME280;11994;51.038;16.974;2023-03-03T15:22:16;100591.37;;;1.99;86.06
23635;BME280;11994;51.038;16.974;2023-03-03T15:24:46;100586.77;;;2.02;86.23
23635;BME280;11994;51.038;16.974;2023-03-03T15:27:34;100583.23;;;2.07;86.17
23635;BME280;11994;51.038;16.974;2023-03-03T15:32:50;100575.23;;;2.13;86.13
23635;BME280;11994;51.038;16.974;2023-03-03T15:35:50;100573.36;;;2.16;86.15
23635;BME280;11994;51.038;16.974;2023-03-03T15:38:56;100574.55;;;2.13;86.06
23635;BME280;11994;51.038;16.974;2023-03-03T15:41:44;100578.61;;;2.10;85.90
23635;BME280;11994;51.038;16.974;2023-03-03T16:01:34;100565.68;;;2.00;86.12
23635;BME280;11994;51.038;16.974;2023-03-03T16:04:07;100572.20;;;1.98;86.35
23635;BME280;11994;51.038;16.974;2023-03-03T16:12:04;100577.01;;;1.96;86.35
23635;BME280;11994;51.038;16.974;2023-03-03T16:20:40;100584.36;;;1.83;86.35
23635;BME280;11994;51.038;16.974;2023-03-03T16:28:34;100580.29;;;1.77;86.25
23635;BME280;11994;51.038;16.974;2023-03-03T16:31:28;100584.89;;;1.74;86.34
23635;BME280;11994;51.038;16.974;2023-03-03T16:42:10;100568.64;;;1.71;86.72
23635;BME280;11994;51.038;16.974;2023-03-03T16:50:15;100573.19;;;1.75;86.82
23635;BME280;11994;51.038;16.974;2023-03-03T16:53:14;100577.84;;;1.76;86.90
23635;BME280;11994;51.038;16.974;2023-03-03T16:59:16;100589.00;;;1.72;86.86
23635;BME280;11994;51.038;16.974;2023-03-03T17:04:58;100598.59;;;1.69;86.91